Diego Garcia, British Indian Ocean

12:32 PM IOT on January 23, 2017 (GMT +0600)
Diego Garcia Navy | | Change Station

Elev 7 ft 7.30 °S, 72.40 °E | Updated 37 minutes ago

Mostly Cloudy
Mostly Cloudy
84 °F
Feels Like 96 °F
N
17
Wind Variable Wind from West

Today
High -- | Low -- °F
--% Chance of Precip.
Yesterday
High -- | Low -- °F
Precip. -- in
Pressure 29.90 in
Visibility 6.2 miles
Clouds Scattered Clouds 1500 ft
Mostly Cloudy 9000 ft
Mostly Cloudy 22000 ft
Heat Index 96 °F
Dew Point 79 °F
Humidity 84%
Rainfall 0.00 in
Snow Depth Not available.
7:08 AM 7:36 PM
Waning Crescent, 20% visible
METAR FJDG 230555Z 28015KT 9999 SCT015 BKN090 BKN220 29/26 A2991 RMK SLP125 8/232 T02890259 10295 20277 50000
Pressure 29.90 in
Visibility 6.2 miles
Clouds Scattered Clouds 1500 ft
Mostly Cloudy 9000 ft
Mostly Cloudy 22000 ft
Heat Index 96 °F
Dew Point 79 °F
Humidity 84%
Rainfall 0.00 in
Snow Depth Not available.
7:08 AM 7:36 PM
Waning Crescent, 20% visible
METAR FJDG 230555Z 28015KT 9999 SCT015 BKN090 BKN220 29/26 A2991 RMK SLP125 8/232 T02890259 10295 20277 50000

Get Your Daily Forecast Email!

Thanks for signing up!

Be on the lookout for a verification email in your inbox.

You'll start receiving the daily forecast at 8 AM.

×

10-Day Weather Forecast

No radar image for this location.
×

Almanac

Astronomy

Jan. 23, 2017 Rise Set
Actual Time
Civil Twilight
Nautical Twilight
Astronomical Twilight
Moon
Length of Visible Light
Length of Day
Tomorrow will be .
, % of the Moon is Illuminated

Today's Extremes

Country Highs Country Lows

Community

WunderPhotos

Upload Photos

1,962,540 photos uploaded!

WunderBlog® & News

Nearby

Air Quality

  Air Quality AQ Index Pollutant
Not available.

Snow Depth

Station Depth Elevation

Earthquake Activity

City Distance Mag. Time & Date
Minimum magnitude displayed is 2.5.

Coastal Water Temperatures

Place Temperature

Stations

Nearby Weather Stations

Station Location Temp. Windchill Dew Point Humidity Wind Precip. Elev Updated Type